sensor_id;sensor_type;location;lat;lon;timestamp;P1;durP1;ratioP1;P2;durP2;ratioP2
38435;SDS011;24220;48.168;14.024;2023-07-29T00:00:58;2.30;;;1.88;;
38435;SDS011;24220;48.168;14.024;2023-07-29T00:03:27;1.65;;;1.55;;
38435;SDS011;24220;48.168;14.024;2023-07-29T00:05:59;2.88;;;2.00;;
38435;SDS011;24220;48.168;14.024;2023-07-29T00:08:28;2.10;;;1.67;;
38435;SDS011;24220;48.168;14.024;2023-07-29T00:10:58;2.58;;;1.83;;
38435;SDS011;24220;48.168;14.024;2023-07-29T00:13:25;3.05;;;1.73;;
38435;SDS011;24220;48.168;14.024;2023-07-29T00:15:53;1.95;;;1.75;;
38435;SDS011;24220;48.168;14.024;2023-07-29T00:18:24;2.65;;;1.60;;
38435;SDS011;24220;48.168;14.024;2023-07-29T00:20:52;1.70;;;1.60;;
38435;SDS011;24220;48.168;14.024;2023-07-29T00:23:19;1.83;;;1.60;;
38435;SDS011;24220;48.168;14.024;2023-07-29T00:25:50;1.70;;;1.42;;
38435;SDS011;24220;48.168;14.024;2023-07-29T00:28:18;2.13;;;1.70;;
38435;SDS011;24220;48.168;14.024;2023-07-29T00:30:49;2.45;;;1.80;;
38435;SDS011;24220;48.168;14.024;2023-07-29T00:33:16;2.55;;;1.92;;
38435;SDS011;24220;48.168;14.024;2023-07-29T00:35:44;2.17;;;1.60;;
38435;SDS011;24220;48.168;14.024;2023-07-29T00:38:11;2.72;;;1.80;;
38435;SDS011;24220;48.168;14.024;2023-07-29T00:40:39;1.95;;;1.70;;
38435;SDS011;24220;48.168;14.024;2023-07-29T00:43:06;2.35;;;1.83;;
38435;SDS011;24220;48.168;14.024;2023-07-29T00:45:33;2.35;;;1.70;;
38435;SDS011;24220;48.168;14.024;2023-07-29T00:48:01;1.63;;;1.52;;
38435;SDS011;24220;48.168;14.024;2023-07-29T00:50:31;2.25;;;1.80;;
38435;SDS011;24220;48.168;14.024;2023-07-29T00:52:59;2.78;;;2.40;;
38435;SDS011;24220;48.168;14.024;2023-07-29T00:55:29;2.30;;;2.03;;
38435;SDS011;24220;48.168;14.024;2023-07-29T00:57:56;2.90;;;1.92;;
38435;SDS011;24220;48.168;14.024;2023-07-29T01:00:24;3.67;;;1.85;;
38435;SDS011;24220;48.168;14.024;2023-07-29T01:02:52;2.47;;;1.63;;
38435;SDS011;24220;48.168;14.024;2023-07-29T01:05:22;2.75;;;2.20;;
38435;SDS011;24220;48.168;14.024;2023-07-29T01:07:59;1.88;;;1.60;;
38435;SDS011;24220;48.168;14.024;2023-07-29T01:13:43;2.10;;;1.70;;
38435;SDS011;24220;48.168;14.024;2023-07-29T01:16:19;2.15;;;1.65;;
38435;SDS011;24220;48.168;14.024;2023-07-29T01:18:50;2.22;;;1.92;;
38435;SDS011;24220;48.168;14.024;2023-07-29T01:21:22;2.60;;;1.70;;
38435;SDS011;24220;48.168;14.024;2023-07-29T01:23:53;2.33;;;1.70;;
38435;SDS011;24220;48.168;14.024;2023-07-29T01:26:25;1.60;;;1.50;;
38435;SDS011;24220;48.168;14.024;2023-07-29T01:28:56;2.85;;;1.80;;
38435;SDS011;24220;48.168;14.024;2023-07-29T01:31:31;3.33;;;1.58;;
38435;SDS011;24220;48.168;14.024;2023-07-29T01:34:05;1.90;;;1.70;;
38435;SDS011;24220;48.168;14.024;2023-07-29T01:36:39;1.85;;;1.63;;
38435;SDS011;24220;48.168;14.024;2023-07-29T01:39:13;2.20;;;2.00;;
38435;SDS011;24220;48.168;14.024;2023-07-29T01:41:45;1.98;;;1.70;;
38435;SDS011;24220;48.168;14.024;2023-07-29T01:44:15;2.33;;;1.90;;
38435;SDS011;24220;48.168;14.024;2023-07-29T01:46:44;2.15;;;1.95;;
38435;SDS011;24220;48.168;14.024;2023-07-29T01:49:14;1.95;;;1.65;;
38435;SDS011;24220;48.168;14.024;2023-07-29T01:51:46;2.20;;;2.00;;
38435;SDS011;24220;48.168;14.024;2023-07-29T01:54:15;2.53;;;1.80;;
38435;SDS011;24220;48.168;14.024;2023-07-29T01:56:42;1.98;;;1.77;;
38435;SDS011;24220;48.168;14.024;2023-07-29T01:59:10;2.15;;;1.95;;
38435;SDS011;24220;48.168;14.024;2023-07-29T02:01:40;2.28;;;2.08;;
38435;SDS011;24220;48.168;14.024;2023-07-29T02:04:08;2.75;;;1.88;;
38435;SDS011;24220;48.168;14.024;2023-07-29T02:06:38;1.90;;;1.80;;
38435;SDS011;24220;48.168;14.024;2023-07-29T02:09:07;2.20;;;1.90;;
38435;SDS011;24220;48.168;14.024;2023-07-29T02:11:34;2.38;;;1.98;;
38435;SDS011;24220;48.168;14.024;2023-07-29T02:14:02;2.08;;;1.88;;
38435;SDS011;24220;48.168;14.024;2023-07-29T02:16:29;3.38;;;1.98;;
38435;SDS011;24220;48.168;14.024;2023-07-29T02:18:57;2.17;;;1.98;;
38435;SDS011;24220;48.168;14.024;2023-07-29T02:21:27;2.15;;;1.65;;
38435;SDS011;24220;48.168;14.024;2023-07-29T02:23:54;2.65;;;1.95;;
38435;SDS011;24220;48.168;14.024;2023-07-29T02:26:22;2.03;;;1.73;;
38435;SDS011;24220;48.168;14.024;2023-07-29T02:28:49;2.63;;;1.90;;
38435;SDS011;24220;48.168;14.024;2023-07-29T02:33:49;2.38;;;1.77;;
38435;SDS011;24220;48.168;14.024;2023-07-29T02:36:19;2.30;;;2.10;;
38435;SDS011;24220;48.168;14.024;2023-07-29T02:38:46;2.95;;;1.88;;
38435;SDS011;24220;48.168;14.024;2023-07-29T02:41:14;2.42;;;1.75;;
38435;SDS011;24220;48.168;14.024;2023-07-29T02:43:43;2.50;;;2.10;;
38435;SDS011;24220;48.168;14.024;2023-07-29T02:46:14;2.10;;;1.90;;
38435;SDS011;24220;48.168;14.024;2023-07-29T02:48:42;2.00;;;1.80;;
38435;SDS011;24220;48.168;14.024;2023-07-29T02:51:13;3.75;;;1.92;;
38435;SDS011;24220;48.168;14.024;2023-07-29T02:53:42;1.90;;;1.80;;
38435;SDS011;24220;48.168;14.024;2023-07-29T02:56:10;2.38;;;2.10;;
38435;SDS011;24220;48.168;14.024;2023-07-29T02:58:38;2.20;;;2.00;;
38435;SDS011;24220;48.168;14.024;2023-07-29T03:01:06;2.53;;;2.10;;
38435;SDS011;24220;48.168;14.024;2023-07-29T03:03:33;1.83;;;1.73;;
38435;SDS011;24220;48.168;14.024;2023-07-29T03:06:06;5.03;;;2.20;;
38435;SDS011;24220;48.168;14.024;2023-07-29T03:08:38;1.98;;;1.73;;
38435;SDS011;24220;48.168;14.024;2023-07-29T03:11:07;2.17;;;1.90;;
38435;SDS011;24220;48.168;14.024;2023-07-29T03:13:35;1.98;;;1.88;;
38435;SDS011;24220;48.168;14.024;2023-07-29T03:16:06;2.92;;;2.40;;
38435;SDS011;24220;48.168;14.024;2023-07-29T03:18:38;1.90;;;1.80;;
38435;SDS011;24220;48.168;14.024;2023-07-29T03:21:09;2.60;;;2.15;;
38435;SDS011;24220;48.168;14.024;2023-07-29T03:23:37;2.35;;;2.10;;
38435;SDS011;24220;48.168;14.024;2023-07-29T03:26:04;2.67;;;2.17;;
38435;SDS011;24220;48.168;14.024;2023-07-29T03:28:41;4.68;;;2.17;;
38435;SDS011;24220;48.168;14.024;2023-07-29T03:31:09;3.22;;;2.40;;
38435;SDS011;24220;48.168;14.024;2023-07-29T03:33:38;2.55;;;2.33;;
38435;SDS011;24220;48.168;14.024;2023-07-29T03:36:05;2.38;;;2.15;;
38435;SDS011;24220;48.168;14.024;2023-07-29T03:38:37;3.03;;;2.15;;
38435;SDS011;24220;48.168;14.024;2023-07-29T03:41:08;2.88;;;2.03;;
38435;SDS011;24220;48.168;14.024;2023-07-29T03:43:35;2.90;;;2.30;;
38435;SDS011;24220;48.168;14.024;2023-07-29T03:46:03;3.30;;;2.30;;
38435;SDS011;24220;48.168;14.024;2023-07-29T03:48:30;3.22;;;2.33;;
38435;SDS011;24220;48.168;14.024;2023-07-29T03:50:58;2.30;;;2.00;;
38435;SDS011;24220;48.168;14.024;2023-07-29T03:53:25;2.88;;;2.40;;
38435;SDS011;24220;48.168;14.024;2023-07-29T03:55:55;2.28;;;2.00;;
38435;SDS011;24220;48.168;14.024;2023-07-29T03:58:25;2.20;;;2.00;;
38435;SDS011;24220;48.168;14.024;2023-07-29T04:00:52;4.15;;;3.85;;
38435;SDS011;24220;48.168;14.024;2023-07-29T04:03:24;3.08;;;2.05;;
38435;SDS011;24220;48.168;14.024;2023-07-29T04:05:52;2.55;;;2.08;;
38435;SDS011;24220;48.168;14.024;2023-07-29T04:08:19;2.35;;;2.10;;
38435;SDS011;24220;48.168;14.024;2023-07-29T04:10:49;2.20;;;2.00;;
38435;SDS011;24220;48.168;14.024;2023-07-29T04:13:16;2.28;;;2.08;;
38435;SDS011;24220;48.168;14.024;2023-07-29T04:15:46;3.72;;;2.15;;
38435;SDS011;24220;48.168;14.024;2023-07-29T04:18:13;2.40;;;2.20;;
38435;SDS011;24220;48.168;14.024;2023-07-29T04:20:40;2.53;;;2.00;;
38435;SDS011;24220;48.168;14.024;2023-07-29T04:23:08;1.95;;;1.73;;
38435;SDS011;24220;48.168;14.024;2023-07-29T04:25:35;2.30;;;2.10;;
38435;SDS011;24220;48.168;14.024;2023-07-29T04:28:02;2.83;;;2.45;;
38435;SDS011;24220;48.168;14.024;2023-07-29T04:30:31;3.05;;;1.98;;
38435;SDS011;24220;48.168;14.024;2023-07-29T04:32:59;3.58;;;3.30;;
38435;SDS011;24220;48.168;14.024;2023-07-29T04:35:29;2.15;;;1.95;;
38435;SDS011;24220;48.168;14.024;2023-07-29T04:37:58;3.33;;;2.10;;
38435;SDS011;24220;48.168;14.024;2023-07-29T04:40:26;2.42;;;1.90;;
38435;SDS011;24220;48.168;14.024;2023-07-29T04:42:55;1.80;;;1.70;;
38435;SDS011;24220;48.168;14.024;2023-07-29T04:45:23;2.15;;;1.83;;
38435;SDS011;24220;48.168;14.024;2023-07-29T04:47:58;2.55;;;1.90;;
38435;SDS011;24220;48.168;14.024;2023-07-29T04:50:25;1.83;;;1.60;;
38435;SDS011;24220;48.168;14.024;2023-07-29T04:52:53;2.67;;;1.95;;
38435;SDS011;24220;48.168;14.024;2023-07-29T04:55:22;2.25;;;1.83;;
38435;SDS011;24220;48.168;14.024;2023-07-29T04:57:49;2.47;;;1.80;;
38435;SDS011;24220;48.168;14.024;2023-07-29T05:00:19;2.13;;;1.92;;
38435;SDS011;24220;48.168;14.024;2023-07-29T05:02:49;2.35;;;1.90;;
38435;SDS011;24220;48.168;14.024;2023-07-29T05:05:16;3.38;;;1.83;;
38435;SDS011;24220;48.168;14.024;2023-07-29T05:07:46;3.10;;;2.30;;
38435;SDS011;24220;48.168;14.024;2023-07-29T05:10:13;1.85;;;1.73;;
38435;SDS011;24220;48.168;14.024;2023-07-29T05:12:40;2.08;;;1.88;;
38435;SDS011;24220;48.168;14.024;2023-07-29T05:15:08;4.32;;;2.10;;
38435;SDS011;24220;48.168;14.024;2023-07-29T05:17:38;2.50;;;2.00;;
38435;SDS011;24220;48.168;14.024;2023-07-29T05:20:06;2.17;;;1.83;;
38435;SDS011;24220;48.168;14.024;2023-07-29T05:22:33;1.90;;;1.77;;
38435;SDS011;24220;48.168;14.024;2023-07-29T05:25:01;2.10;;;1.90;;
38435;SDS011;24220;48.168;14.024;2023-07-29T05:27:30;2.70;;;1.70;;
38435;SDS011;24220;48.168;14.024;2023-07-29T05:29:58;2.25;;;2.00;;
38435;SDS011;24220;48.168;14.024;2023-07-29T05:32:28;2.63;;;2.08;;
38435;SDS011;24220;48.168;14.024;2023-07-29T05:34:56;2.65;;;1.90;;
38435;SDS011;24220;48.168;14.024;2023-07-29T05:37:23;2.70;;;2.00;;
38435;SDS011;24220;48.168;14.024;2023-07-29T05:39:53;2.55;;;1.75;;
38435;SDS011;24220;48.168;14.024;2023-07-29T05:42:23;2.78;;;1.80;;
38435;SDS011;24220;48.168;14.024;2023-07-29T05:44:53;2.20;;;2.00;;
38435;SDS011;24220;48.168;14.024;2023-07-29T05:47:20;2.33;;;1.77;;
38435;SDS011;24220;48.168;14.024;2023-07-29T05:49:47;2.90;;;2.30;;
38435;SDS011;24220;48.168;14.024;2023-07-29T05:52:15;2.50;;;1.98;;
38435;SDS011;24220;48.168;14.024;2023-07-29T05:54:42;1.95;;;1.77;;
38435;SDS011;24220;48.168;14.024;2023-07-29T05:57:12;2.55;;;2.20;;
38435;SDS011;24220;48.168;14.024;2023-07-29T05:59:39;2.83;;;2.10;;
38435;SDS011;24220;48.168;14.024;2023-07-29T06:02:09;4.18;;;3.95;;
38435;SDS011;24220;48.168;14.024;2023-07-29T06:04:36;2.05;;;1.70;;
38435;SDS011;24220;48.168;14.024;2023-07-29T06:07:04;1.95;;;1.70;;
38435;SDS011;24220;48.168;14.024;2023-07-29T06:09:34;2.38;;;2.17;;
38435;SDS011;24220;48.168;14.024;2023-07-29T06:12:01;2.15;;;1.95;;
38435;SDS011;24220;48.168;14.024;2023-07-29T06:14:28;2.30;;;2.10;;
38435;SDS011;24220;48.168;14.024;2023-07-29T06:16:56;2.75;;;2.40;;
38435;SDS011;24220;48.168;14.024;2023-07-29T06:19:23;3.08;;;2.13;;
38435;SDS011;24220;48.168;14.024;2023-07-29T06:21:50;2.63;;;2.25;;
38435;SDS011;24220;48.168;14.024;2023-07-29T06:24:21;3.67;;;2.30;;
38435;SDS011;24220;48.168;14.024;2023-07-29T06:26:51;2.20;;;2.00;;
38435;SDS011;24220;48.168;14.024;2023-07-29T06:29:18;3.47;;;2.10;;
38435;SDS011;24220;48.168;14.024;2023-07-29T06:31:46;2.65;;;1.90;;
38435;SDS011;24220;48.168;14.024;2023-07-29T06:34:18;1.90;;;1.80;;
38435;SDS011;24220;48.168;14.024;2023-07-29T06:36:45;2.67;;;2.00;;
38435;SDS011;24220;48.168;14.024;2023-07-29T06:39:12;2.47;;;1.80;;
38435;SDS011;24220;48.168;14.024;2023-07-29T06:41:42;1.77;;;1.67;;
38435;SDS011;24220;48.168;14.024;2023-07-29T06:44:09;2.10;;;1.90;;
38435;SDS011;24220;48.168;14.024;2023-07-29T06:46:37;2.10;;;1.60;;
38435;SDS011;24220;48.168;14.024;2023-07-29T06:49:05;2.17;;;1.98;;
38435;SDS011;24220;48.168;14.024;2023-07-29T06:51:32;2.65;;;1.80;;
38435;SDS011;24220;48.168;14.024;2023-07-29T06:54:02;1.60;;;1.50;;
38435;SDS011;24220;48.168;14.024;2023-07-29T06:56:29;2.10;;;1.63;;
38435;SDS011;24220;48.168;14.024;2023-07-29T06:58:59;1.70;;;1.60;;
38435;SDS011;24220;48.168;14.024;2023-07-29T07:01:26;1.70;;;1.60;;
38435;SDS011;24220;48.168;14.024;2023-07-29T07:03:54;1.73;;;1.63;;
38435;SDS011;24220;48.168;14.024;2023-07-29T07:06:21;2.28;;;1.63;;
38435;SDS011;24220;48.168;14.024;2023-07-29T07:08:51;1.60;;;1.50;;
38435;SDS011;24220;48.168;14.024;2023-07-29T07:11:19;1.77;;;1.60;;
38435;SDS011;24220;48.168;14.024;2023-07-29T07:13:48;2.28;;;1.42;;
38435;SDS011;24220;48.168;14.024;2023-07-29T07:16:15;2.00;;;1.80;;
38435;SDS011;24220;48.168;14.024;2023-07-29T07:18:43;3.70;;;1.73;;
38435;SDS011;24220;48.168;14.024;2023-07-29T07:21:10;1.88;;;1.55;;
38435;SDS011;24220;48.168;14.024;2023-07-29T07:23:38;1.80;;;1.70;;
38435;SDS011;24220;48.168;14.024;2023-07-29T07:26:06;1.40;;;1.30;;
38435;SDS011;24220;48.168;14.024;2023-07-29T07:28:35;3.45;;;1.88;;
38435;SDS011;24220;48.168;14.024;2023-07-29T07:31:03;1.73;;;1.50;;
38435;SDS011;24220;48.168;14.024;2023-07-29T07:33:35;1.90;;;1.60;;
38435;SDS011;24220;48.168;14.024;2023-07-29T07:36:02;2.20;;;1.55;;
38435;SDS011;24220;48.168;14.024;2023-07-29T07:38:30;1.67;;;1.58;;
38435;SDS011;24220;48.168;14.024;2023-07-29T07:40:57;1.95;;;1.83;;
38435;SDS011;24220;48.168;14.024;2023-07-29T07:43:24;1.77;;;1.50;;
38435;SDS011;24220;48.168;14.024;2023-07-29T07:45:57;1.48;;;1.38;;
38435;SDS011;24220;48.168;14.024;2023-07-29T07:48:26;1.98;;;1.50;;
38435;SDS011;24220;48.168;14.024;2023-07-29T07:50:56;1.98;;;1.70;;
38435;SDS011;24220;48.168;14.024;2023-07-29T07:53:25;1.83;;;1.50;;
38435;SDS011;24220;48.168;14.024;2023-07-29T07:55:53;1.90;;;1.52;;
38435;SDS011;24220;48.168;14.024;2023-07-29T07:58:22;1.98;;;1.60;;
38435;SDS011;24220;48.168;14.024;2023-07-29T08:00:52;3.83;;;3.63;;
38435;SDS011;24220;48.168;14.024;2023-07-29T08:03:19;4.50;;;1.50;;
38435;SDS011;24220;48.168;14.024;2023-07-29T08:05:46;1.80;;;1.70;;
38435;SDS011;24220;48.168;14.024;2023-07-29T08:08:14;1.48;;;1.38;;
38435;SDS011;24220;48.168;14.024;2023-07-29T08:10:41;1.90;;;1.40;;
38435;SDS011;24220;48.168;14.024;2023-07-29T08:13:09;1.65;;;1.55;;
38435;SDS011;24220;48.168;14.024;2023-07-29T08:15:41;1.88;;;1.42;;
38435;SDS011;24220;48.168;14.024;2023-07-29T08:18:12;1.70;;;1.60;;
38435;SDS011;24220;48.168;14.024;2023-07-29T08:20:39;2.20;;;1.55;;
38435;SDS011;24220;48.168;14.024;2023-07-29T08:23:06;1.95;;;1.58;;
38435;SDS011;24220;48.168;14.024;2023-07-29T08:25:34;1.77;;;1.67;;
38435;SDS011;24220;48.168;14.024;2023-07-29T08:28:03;2.67;;;1.88;;
38435;SDS011;24220;48.168;14.024;2023-07-29T08:30:33;1.95;;;1.70;;
38435;SDS011;24220;48.168;14.024;2023-07-29T08:33:00;2.85;;;2.65;;
38435;SDS011;24220;48.168;14.024;2023-07-29T08:35:28;1.77;;;1.50;;
38435;SDS011;24220;48.168;14.024;2023-07-29T08:37:55;2.13;;;1.73;;
38435;SDS011;24220;48.168;14.024;2023-07-29T08:40:23;2.38;;;1.85;;
38435;SDS011;24220;48.168;14.024;2023-07-29T08:42:58;1.88;;;1.48;;
38435;SDS011;24220;48.168;14.024;2023-07-29T08:45:33;1.83;;;1.50;;
38435;SDS011;24220;48.168;14.024;2023-07-29T08:48:03;5.93;;;1.65;;
38435;SDS011;24220;48.168;14.024;2023-07-29T08:50:37;1.73;;;1.40;;
38435;SDS011;24220;48.168;14.024;2023-07-29T08:53:07;1.80;;;1.70;;
38435;SDS011;24220;48.168;14.024;2023-07-29T08:55:35;1.95;;;1.70;;
38435;SDS011;24220;48.168;14.024;2023-07-29T08:58:03;2.00;;;1.80;;
38435;SDS011;24220;48.168;14.024;2023-07-29T09:00:34;2.17;;;1.75;;
38435;SDS011;24220;48.168;14.024;2023-07-29T09:03:03;1.63;;;1.52;;
38435;SDS011;24220;48.168;14.024;2023-07-29T09:05:33;2.08;;;1.60;;
38435;SDS011;24220;48.168;14.024;2023-07-29T09:08:02;1.85;;;1.23;;
38435;SDS011;24220;48.168;14.024;2023-07-29T09:10:34;2.33;;;1.60;;
38435;SDS011;24220;48.168;14.024;2023-07-29T09:13:03;1.55;;;1.45;;
38435;SDS011;24220;48.168;14.024;2023-07-29T09:15:32;1.70;;;1.60;;
38435;SDS011;24220;48.168;14.024;2023-07-29T09:18:17;2.92;;;1.77;;
38435;SDS011;24220;48.168;14.024;2023-07-29T09:20:47;1.50;;;1.33;;
38435;SDS011;24220;48.168;14.024;2023-07-29T09:23:16;1.40;;;1.30;;
38435;SDS011;24220;48.168;14.024;2023-07-29T09:25:44;1.60;;;1.50;;
38435;SDS011;24220;48.168;14.024;2023-07-29T09:28:14;1.38;;;1.27;;
38435;SDS011;24220;48.168;14.024;2023-07-29T09:30:45;1.67;;;1.58;;
38435;SDS011;24220;48.168;14.024;2023-07-29T09:33:13;2.88;;;1.65;;
38435;SDS011;24220;48.168;14.024;2023-07-29T09:35:43;1.77;;;1.33;;
38435;SDS011;24220;48.168;14.024;2023-07-29T09:38:14;2.05;;;1.73;;
38435;SDS011;24220;48.168;14.024;2023-07-29T09:40:42;1.60;;;1.50;;
38435;SDS011;24220;48.168;14.024;2023-07-29T09:43:14;1.70;;;1.60;;
38435;SDS011;24220;48.168;14.024;2023-07-29T09:45:43;1.85;;;1.75;;
38435;SDS011;24220;48.168;14.024;2023-07-29T09:48:13;2.22;;;1.63;;
38435;SDS011;24220;48.168;14.024;2023-07-29T09:50:40;1.83;;;1.60;;
38435;SDS011;24220;48.168;14.024;2023-07-29T09:53:08;2.33;;;1.40;;
38435;SDS011;24220;48.168;14.024;2023-07-29T09:55:35;1.63;;;1.52;;
38435;SDS011;24220;48.168;14.024;2023-07-29T09:58:03;3.22;;;1.60;;
38435;SDS011;24220;48.168;14.024;2023-07-29T10:00:34;2.22;;;1.95;;
38435;SDS011;24220;48.168;14.024;2023-07-29T10:03:05;3.00;;;2.80;;
38435;SDS011;24220;48.168;14.024;2023-07-29T10:05:33;2.47;;;1.70;;
38435;SDS011;24220;48.168;14.024;2023-07-29T10:08:05;2.28;;;1.55;;
38435;SDS011;24220;48.168;14.024;2023-07-29T10:10:33;1.70;;;1.50;;
38435;SDS011;24220;48.168;14.024;2023-07-29T10:13:00;2.03;;;1.50;;
38435;SDS011;24220;48.168;14.024;2023-07-29T10:15:31;2.25;;;1.50;;
38435;SDS011;24220;48.168;14.024;2023-07-29T10:17:59;3.20;;;1.58;;
38435;SDS011;24220;48.168;14.024;2023-07-29T10:20:31;1.65;;;1.55;;
38435;SDS011;24220;48.168;14.024;2023-07-29T10:23:03;1.50;;;1.40;;
38435;SDS011;24220;48.168;14.024;2023-07-29T10:25:37;2.00;;;1.67;;
38435;SDS011;24220;48.168;14.024;2023-07-29T10:28:08;1.40;;;1.20;;
38435;SDS011;24220;48.168;14.024;2023-07-29T10:30:39;1.60;;;1.50;;
38435;SDS011;24220;48.168;14.024;2023-07-29T10:33:10;2.20;;;1.98;;
38435;SDS011;24220;48.168;14.024;2023-07-29T10:35:37;1.80;;;1.48;;
38435;SDS011;24220;48.168;14.024;2023-07-29T10:38:07;1.85;;;1.65;;
38435;SDS011;24220;48.168;14.024;2023-07-29T10:40:46;3.17;;;1.67;;
38435;SDS011;24220;48.168;14.024;2023-07-29T10:43:23;2.70;;;2.03;;
38435;SDS011;24220;48.168;14.024;2023-07-29T10:45:59;1.52;;;1.42;;
38435;SDS011;24220;48.168;14.024;2023-07-29T10:53:56;1.95;;;1.75;;
38435;SDS011;24220;48.168;14.024;2023-07-29T10:56:24;2.00;;;1.50;;
38435;SDS011;24220;48.168;14.024;2023-07-29T10:59:01;1.95;;;1.50;;
38435;SDS011;24220;48.168;14.024;2023-07-29T11:02:11;1.58;;;1.48;;
38435;SDS011;24220;48.168;14.024;2023-07-29T11:04:47;1.50;;;1.40;;
38435;SDS011;24220;48.168;14.024;2023-07-29T11:12:36;2.10;;;1.67;;
38435;SDS011;24220;48.168;14.024;2023-07-29T11:17:44;1.55;;;1.45;;
38435;SDS011;24220;48.168;14.024;2023-07-29T11:20:14;1.98;;;1.50;;
38435;SDS011;24220;48.168;14.024;2023-07-29T11:22:43;3.85;;;2.17;;
38435;SDS011;24220;48.168;14.024;2023-07-29T11:25:11;1.63;;;1.52;;
38435;SDS011;24220;48.168;14.024;2023-07-29T11:27:40;1.77;;;1.40;;
38435;SDS011;24220;48.168;14.024;2023-07-29T11:30:11;1.67;;;1.58;;
38435;SDS011;24220;48.168;14.024;2023-07-29T11:32:40;1.60;;;1.50;;
38435;SDS011;24220;48.168;14.024;2023-07-29T11:35:14;1.55;;;1.45;;
38435;SDS011;24220;48.168;14.024;2023-07-29T11:37:45;1.52;;;1.42;;
38435;SDS011;24220;48.168;14.024;2023-07-29T11:40:19;1.40;;;1.30;;
38435;SDS011;24220;48.168;14.024;2023-07-29T11:42:48;1.70;;;1.60;;
38435;SDS011;24220;48.168;14.024;2023-07-29T11:45:20;1.70;;;1.60;;
38435;SDS011;24220;48.168;14.024;2023-07-29T11:47:51;1.67;;;1.50;;
38435;SDS011;24220;48.168;14.024;2023-07-29T11:50:18;1.83;;;1.70;;
38435;SDS011;24220;48.168;14.024;2023-07-29T11:52:48;1.83;;;1.73;;
38435;SDS011;24220;48.168;14.024;2023-07-29T11:55:18;1.85;;;1.75;;
38435;SDS011;24220;48.168;14.024;2023-07-29T11:57:46;1.98;;;1.70;;
38435;SDS011;24220;48.168;14.024;2023-07-29T12:00:20;1.70;;;1.60;;
38435;SDS011;24220;48.168;14.024;2023-07-29T12:02:50;1.88;;;1.70;;
38435;SDS011;24220;48.168;14.024;2023-07-29T12:05:18;1.70;;;1.60;;
38435;SDS011;24220;48.168;14.024;2023-07-29T12:07:48;2.10;;;1.90;;
38435;SDS011;24220;48.168;14.024;2023-07-29T12:10:18;2.05;;;1.70;;
38435;SDS011;24220;48.168;14.024;2023-07-29T12:12:50;2.38;;;1.88;;
38435;SDS011;24220;48.168;14.024;2023-07-29T12:15:27;1.63;;;1.50;;
38435;SDS011;24220;48.168;14.024;2023-07-29T12:17:56;1.60;;;1.50;;
38435;SDS011;24220;48.168;14.024;2023-07-29T12:20:25;2.35;;;1.77;;
38435;SDS011;24220;48.168;14.024;2023-07-29T12:22:59;2.05;;;1.85;;
38435;SDS011;24220;48.168;14.024;2023-07-29T12:25:32;1.70;;;1.60;;
38435;SDS011;24220;48.168;14.024;2023-07-29T12:28:05;1.67;;;1.58;;
38435;SDS011;24220;48.168;14.024;2023-07-29T12:30:34;1.65;;;1.55;;
38435;SDS011;24220;48.168;14.024;2023-07-29T12:33:07;1.67;;;1.58;;
38435;SDS011;24220;48.168;14.024;2023-07-29T12:35:36;1.60;;;1.50;;
38435;SDS011;24220;48.168;14.024;2023-07-29T12:38:04;1.63;;;1.52;;
38435;SDS011;24220;48.168;14.024;2023-07-29T12:40:31;1.95;;;1.85;;
38435;SDS011;24220;48.168;14.024;2023-07-29T12:42:59;1.63;;;1.52;;
38435;SDS011;24220;48.168;14.024;2023-07-29T12:45:27;1.70;;;1.60;;
38435;SDS011;24220;48.168;14.024;2023-07-29T12:47:57;1.55;;;1.45;;
38435;SDS011;24220;48.168;14.024;2023-07-29T12:50:25;1.77;;;1.67;;
38435;SDS011;24220;48.168;14.024;2023-07-29T12:52:52;3.03;;;1.60;;
38435;SDS011;24220;48.168;14.024;2023-07-29T12:55:19;1.60;;;1.50;;
38435;SDS011;24220;48.168;14.024;2023-07-29T12:57:50;1.40;;;1.30;;
38435;SDS011;24220;48.168;14.024;2023-07-29T13:00:18;2.00;;;1.70;;
38435;SDS011;24220;48.168;14.024;2023-07-29T13:02:45;1.73;;;1.60;;
38435;SDS011;24220;48.168;14.024;2023-07-29T13:05:13;1.48;;;1.38;;
38435;SDS011;24220;48.168;14.024;2023-07-29T13:07:40;2.65;;;1.60;;
38435;SDS011;24220;48.168;14.024;2023-07-29T13:10:09;1.70;;;1.42;;
38435;SDS011;24220;48.168;14.024;2023-07-29T13:12:37;1.92;;;1.83;;
38435;SDS011;24220;48.168;14.024;2023-07-29T13:15:04;1.77;;;1.60;;
38435;SDS011;24220;48.168;14.024;2023-07-29T13:17:33;1.50;;;1.40;;
38435;SDS011;24220;48.168;14.024;2023-07-29T13:20:01;1.60;;;1.50;;
38435;SDS011;24220;48.168;14.024;2023-07-29T13:22:30;2.10;;;1.70;;
38435;SDS011;24220;48.168;14.024;2023-07-29T13:24:58;1.83;;;1.73;;
38435;SDS011;24220;48.168;14.024;2023-07-29T13:27:25;5.63;;;1.77;;
38435;SDS011;24220;48.168;14.024;2023-07-29T13:29:53;12.73;;;3.22;;
38435;SDS011;24220;48.168;14.024;2023-07-29T13:32:23;6.90;;;1.85;;
38435;SDS011;24220;48.168;14.024;2023-07-29T13:34:53;14.85;;;2.53;;
38435;SDS011;24220;48.168;14.024;2023-07-29T13:37:23;14.77;;;2.90;;
38435;SDS011;24220;48.168;14.024;2023-07-29T13:39:52;9.38;;;2.78;;
38435;SDS011;24220;48.168;14.024;2023-07-29T13:42:22;2.38;;;1.95;;
38435;SDS011;24220;48.168;14.024;2023-07-29T13:44:49;4.18;;;2.30;;
38435;SDS011;24220;48.168;14.024;2023-07-29T13:47:16;2.72;;;2.20;;
38435;SDS011;24220;48.168;14.024;2023-07-29T13:49:46;2.92;;;2.47;;
38435;SDS011;24220;48.168;14.024;2023-07-29T13:52:16;2.50;;;2.30;;
38435;SDS011;24220;48.168;14.024;2023-07-29T13:54:43;4.85;;;2.67;;
38435;SDS011;24220;48.168;14.024;2023-07-29T13:57:10;3.95;;;2.58;;
38435;SDS011;24220;48.168;14.024;2023-07-29T13:59:40;4.72;;;2.50;;
38435;SDS011;24220;48.168;14.024;2023-07-29T14:02:07;2.47;;;2.00;;
38435;SDS011;24220;48.168;14.024;2023-07-29T14:04:35;3.05;;;2.10;;
38435;SDS011;24220;48.168;14.024;2023-07-29T14:07:02;3.45;;;2.15;;
38435;SDS011;24220;48.168;14.024;2023-07-29T14:09:30;2.35;;;2.15;;
38435;SDS011;24220;48.168;14.024;2023-07-29T14:11:57;4.38;;;2.45;;
38435;SDS011;24220;48.168;14.024;2023-07-29T14:14:25;3.35;;;2.10;;
38435;SDS011;24220;48.168;14.024;2023-07-29T14:16:52;2.53;;;2.10;;
38435;SDS011;24220;48.168;14.024;2023-07-29T14:19:24;1.88;;;1.65;;
38435;SDS011;24220;48.168;14.024;2023-07-29T14:21:52;1.92;;;1.83;;
38435;SDS011;24220;48.168;14.024;2023-07-29T14:24:19;5.50;;;1.88;;
38435;SDS011;24220;48.168;14.024;2023-07-29T14:26:52;2.90;;;2.40;;
38435;SDS011;24220;48.168;14.024;2023-07-29T14:29:19;2.05;;;1.90;;
38435;SDS011;24220;48.168;14.024;2023-07-29T14:31:46;2.03;;;1.65;;
38435;SDS011;24220;48.168;14.024;2023-07-29T14:34:16;1.70;;;1.60;;
38435;SDS011;24220;48.168;14.024;2023-07-29T14:36:46;1.75;;;1.65;;
38435;SDS011;24220;48.168;14.024;2023-07-29T14:39:13;2.90;;;1.65;;
38435;SDS011;24220;48.168;14.024;2023-07-29T14:41:40;2.00;;;1.67;;
38435;SDS011;24220;48.168;14.024;2023-07-29T14:44:12;2.42;;;2.00;;
38435;SDS011;24220;48.168;14.024;2023-07-29T14:46:42;2.47;;;1.95;;
38435;SDS011;24220;48.168;14.024;2023-07-29T14:49:11;2.22;;;1.77;;
38435;SDS011;24220;48.168;14.024;2023-07-29T14:51:41;1.88;;;1.70;;
38435;SDS011;24220;48.168;14.024;2023-07-29T14:54:08;2.28;;;1.70;;
38435;SDS011;24220;48.168;14.024;2023-07-29T14:56:36;1.65;;;1.52;;
38435;SDS011;24220;48.168;14.024;2023-07-29T14:59:06;1.95;;;1.30;;
38435;SDS011;24220;48.168;14.024;2023-07-29T15:01:33;2.03;;;1.33;;
38435;SDS011;24220;48.168;14.024;2023-07-29T15:04:03;3.03;;;1.60;;